الصفحة الرئيسية
METAR-TAF:

METAR-TAF

مطار :

مطار تشنغدو شوانغليو الدولي

تشنغدو, جمهورية الصين الشعبية

دائرة عرض: 30-40N, خط طول: 104-01E, ارتفاع: 508 متر

مراقبة الطقس الحالي

تاريخ ووقت الإصدار 1ساعة و 4 دقيقة قبل الساعة 20:00UTC
رياح هادئة
درجة الحرارة 21°درجة مئوية
الرطوبة 78%
ضغط 1008 hPa
الرؤية 10 كم أو أكثر
الغيوم لا تقل 1500 م ولا وجود لمزنة ركامية السحاب الأسود

METAR: ZUUU 292000Z 00000MPS CAVOK 21/17 Q1008 NOSIG

زمن: 05:04 (21:04 UTC)

توقعات

تاريخ ووقت الإصدار 6ساعات و 1 دقيقة قبل الساعة 15:03UTC
التوقعات صالحة من29 الساعة 18 UTC إلى 30 الساعة 18 UTC
ريح 6 عقدة من الجنوب/الجنوب الغربي
الرؤية: 6000 متر
غيوم متفرقة على ارتفاع 5000 قدم

TAF: ZUUU 291503Z 2918/3018 20003MPS 6000 SCT050 TX32/3007Z TN19/2922Z

أرصاد الطقس والتوقعات من أكثر من 4000 مطار (تقارير الطقس للمطار METAR والتنبؤ بالطقس بالمطارTAF).

المحطات المتاحة هي النقط الصفراء والحمراء على الخريطة.

حرك المؤشر فوق النقطة لمعرفة اسم المحطة.

ثم انقر لمعرفة أرصاد وتوقعات الطقس.

لتغيير الخارطة: اضغط على الأزرار الخضراء مع رمز الصليب الأسود للتكبير. على الزر الأخضر مع شرطة للتصغير، أو على الأسهم الخضراء للخرائط المجاورة.


METAR-TAF: